createdAt,value
2022-10-28T00:01:29.330Z,18.50
2022-10-28T00:03:59.116Z,17.27
2022-10-28T00:06:30.173Z,17.37
2022-10-28T00:08:58.131Z,18.35
2022-10-28T00:11:33.224Z,16.30
2022-10-28T00:14:03.390Z,17.27
2022-10-28T00:16:33.204Z,17.60
2022-10-28T00:19:02.100Z,18.67
2022-10-28T00:21:34.579Z,19.42
2022-10-28T00:24:02.279Z,18.87
2022-10-28T00:26:31.373Z,17.50
2022-10-28T00:29:01.228Z,18.63
2022-10-28T00:31:30.613Z,18.12
2022-10-28T00:33:59.583Z,17.27
2022-10-28T00:36:29.090Z,16.15
2022-10-28T00:38:56.870Z,17.58
2022-10-28T00:41:32.482Z,17.30
2022-10-28T00:44:04.094Z,16.83
2022-10-28T00:46:39.808Z,17.58
2022-10-28T00:49:29.287Z,17.80
2022-10-28T00:52:01.707Z,18.75
2022-10-28T00:54:29.832Z,19.23
2022-10-28T00:56:58.614Z,19.00
2022-10-28T00:59:32.128Z,18.95
2022-10-28T01:02:00.265Z,18.12
2022-10-28T01:04:28.155Z,17.48
2022-10-28T01:06:56.180Z,17.57
2022-10-28T01:12:20.806Z,17.33
2022-10-28T01:14:53.502Z,16.50
2022-10-28T01:17:44.328Z,15.00
2022-10-28T01:20:28.442Z,14.97
2022-10-28T01:23:07.577Z,16.02
2022-10-28T01:26:17.069Z,13.80
2022-10-28T01:29:05.930Z,14.38
2022-10-28T01:31:39.185Z,15.40
2022-10-28T01:34:12.639Z,15.77
2022-10-28T01:37:15.781Z,15.85
2022-10-28T01:40:30.078Z,15.57
2022-10-28T01:43:08.000Z,14.93
2022-10-28T01:45:42.268Z,15.50
2022-10-28T01:48:13.619Z,16.20
2022-10-28T01:51:06.568Z,16.08
2022-10-28T01:53:37.461Z,14.75
2022-10-28T01:56:09.689Z,15.18
2022-10-28T01:58:38.626Z,14.00
2022-10-28T02:01:08.193Z,14.23
2022-10-28T02:03:36.236Z,14.57
2022-10-28T02:06:05.494Z,15.65
2022-10-28T02:08:42.200Z,14.87
2022-10-28T02:11:14.004Z,15.05
2022-10-28T02:13:54.412Z,15.57
2022-10-28T02:16:34.925Z,14.15
2022-10-28T02:19:15.775Z,14.07
2022-10-28T02:21:55.370Z,15.52
2022-10-28T02:24:40.227Z,16.27
2022-10-28T02:27:31.545Z,15.47
2022-10-28T02:30:08.898Z,15.48
2022-10-28T02:32:39.958Z,14.80
2022-10-28T02:35:12.122Z,15.52
2022-10-28T02:37:41.545Z,14.80
2022-10-28T02:40:12.907Z,15.20
2022-10-28T02:42:50.906Z,15.48
2022-10-28T02:45:21.964Z,15.80
2022-10-28T02:47:59.253Z,15.27
2022-10-28T02:50:32.352Z,14.43
2022-10-28T02:53:02.143Z,15.70
2022-10-28T02:55:34.247Z,16.77
2022-10-28T02:58:02.146Z,15.77
2022-10-28T03:00:29.781Z,14.82
2022-10-28T03:02:57.200Z,15.27
2022-10-28T03:05:24.908Z,15.43
2022-10-28T03:07:52.473Z,15.77
2022-10-28T03:10:20.211Z,16.48
2022-10-28T03:12:47.935Z,16.55
2022-10-28T03:15:15.376Z,17.40
2022-10-28T03:17:42.889Z,16.07
2022-10-28T03:20:11.031Z,17.90
2022-10-28T03:22:38.499Z,16.60
2022-10-28T03:25:06.061Z,17.23
2022-10-28T03:27:33.740Z,17.08
2022-10-28T03:30:01.224Z,18.03
2022-10-28T03:32:28.716Z,16.92
2022-10-28T03:34:56.572Z,16.90
2022-10-28T03:37:24.142Z,16.48
2022-10-28T03:39:51.622Z,17.27
2022-10-28T03:42:19.303Z,17.30
2022-10-28T03:44:46.783Z,17.23
2022-10-28T03:47:14.295Z,18.08
2022-10-28T03:49:42.018Z,16.60
2022-10-28T03:52:09.442Z,17.30
2022-10-28T03:54:36.910Z,16.90
2022-10-28T03:57:04.610Z,15.57
2022-10-28T03:59:32.088Z,17.20
2022-10-28T04:01:59.732Z,15.73
2022-10-28T04:04:30.005Z,17.15
2022-10-28T04:06:58.413Z,18.10
2022-10-28T04:09:25.885Z,17.65
2022-10-28T04:11:53.620Z,17.87
2022-10-28T04:14:21.126Z,17.40
2022-10-28T04:16:48.811Z,18.40
2022-10-28T04:19:16.551Z,19.23
2022-10-28T04:21:44.019Z,18.23
2022-10-28T04:24:11.548Z,16.60
2022-10-28T04:26:39.264Z,16.08
2022-10-28T04:29:06.660Z,16.77
2022-10-28T04:31:34.129Z,16.53
2022-10-28T04:34:01.928Z,17.52
2022-10-28T04:36:29.622Z,16.73
2022-10-28T04:38:57.492Z,17.08
2022-10-28T04:41:34.228Z,17.67
2022-10-28T04:44:01.704Z,16.67
2022-10-28T04:46:29.379Z,16.40
2022-10-28T04:48:56.884Z,16.35
2022-10-28T04:51:24.458Z,16.30
2022-10-28T04:53:52.210Z,16.70
2022-10-28T04:56:19.619Z,14.03
2022-10-28T04:58:47.681Z,15.10
2022-10-28T05:01:15.498Z,15.02
2022-10-28T05:03:42.985Z,14.10
2022-10-28T05:06:10.416Z,17.00
2022-10-28T05:08:38.211Z,15.03
2022-10-28T05:11:05.651Z,15.75
2022-10-28T05:13:33.342Z,16.17
2022-10-28T05:16:01.189Z,16.10
2022-10-28T05:18:28.700Z,16.10
2022-10-28T05:20:56.944Z,15.10
2022-10-28T05:23:27.274Z,13.77
2022-10-28T05:25:57.407Z,12.32
2022-10-28T05:28:25.195Z,13.32
2022-10-28T05:30:52.690Z,12.65
2022-10-28T05:33:20.253Z,13.57
2022-10-28T05:35:47.966Z,13.90
2022-10-28T05:38:15.518Z,13.73
2022-10-28T05:40:43.005Z,12.85
2022-10-28T05:43:11.087Z,16.30
2022-10-28T05:45:38.572Z,12.97
2022-10-28T05:48:06.330Z,12.75
2022-10-28T05:50:34.151Z,12.80
2022-10-28T05:53:01.761Z,12.50
2022-10-28T05:55:29.681Z,13.15
2022-10-28T05:57:57.983Z,11.70
2022-10-28T06:00:26.289Z,12.27
2022-10-28T06:03:02.681Z,12.50
2022-10-28T06:05:30.275Z,12.98
2022-10-28T06:07:58.219Z,13.45
2022-10-28T06:10:25.667Z,13.00
2022-10-28T06:12:54.728Z,12.52
2022-10-28T06:15:22.751Z,13.85
2022-10-28T06:17:50.358Z,11.35
2022-10-28T06:20:17.834Z,11.55
2022-10-28T06:22:53.290Z,12.10
2022-10-28T06:25:21.856Z,11.75
2022-10-28T06:27:54.354Z,11.93
2022-10-28T06:30:22.972Z,11.45
2022-10-28T06:32:50.872Z,11.32
2022-10-28T06:35:18.339Z,13.30
2022-10-28T06:37:45.883Z,13.05
2022-10-28T06:40:13.606Z,12.80
2022-10-28T06:42:41.068Z,13.68
2022-10-28T06:45:08.640Z,13.70
2022-10-28T06:47:41.351Z,13.63
2022-10-28T06:50:09.405Z,13.25
2022-10-28T06:52:36.927Z,12.80
2022-10-28T06:55:05.011Z,17.70
2022-10-28T06:57:32.457Z,22.77
2022-10-28T06:59:59.969Z,26.07
2022-10-28T07:02:27.949Z,16.40
2022-10-28T07:04:55.455Z,16.70
2022-10-28T07:07:23.014Z,16.62
2022-10-28T07:09:50.818Z,15.90
2022-10-28T07:14:50.880Z,13.30
2022-10-28T07:17:18.321Z,13.77
2022-10-28T07:19:45.783Z,14.63
2022-10-28T07:22:16.732Z,14.02
2022-10-28T07:24:46.519Z,12.53
2022-10-28T07:27:14.243Z,12.23
2022-10-28T07:29:41.709Z,11.50
2022-10-28T07:32:09.194Z,11.85
2022-10-28T07:34:36.978Z,12.20
2022-10-28T07:37:06.068Z,12.30
2022-10-28T07:39:33.679Z,13.13
2022-10-28T07:42:01.488Z,13.18
2022-10-28T07:44:28.988Z,12.32
2022-10-28T07:46:58.193Z,13.73
2022-10-28T07:49:29.162Z,13.30
2022-10-28T07:51:57.209Z,13.20
2022-10-28T07:54:24.658Z,13.13
2022-10-28T07:56:52.403Z,14.73
2022-10-28T07:59:25.815Z,15.50
2022-10-28T08:01:55.271Z,13.47
2022-10-28T08:04:23.068Z,15.73
2022-10-28T08:06:50.574Z,12.73
2022-10-28T08:09:18.106Z,14.05
2022-10-28T08:11:45.871Z,14.52
2022-10-28T08:14:13.346Z,14.73
2022-10-28T08:16:41.861Z,12.65
2022-10-28T08:19:10.801Z,14.13
2022-10-28T08:21:38.272Z,14.85
2022-10-28T08:24:06.072Z,11.50
2022-10-28T08:26:34.371Z,13.63
2022-10-28T08:29:01.842Z,13.35
2022-10-28T08:31:29.383Z,11.75
2022-10-28T08:33:57.107Z,12.50
2022-10-28T08:36:24.950Z,12.32
2022-10-28T08:38:52.788Z,13.40
2022-10-28T08:41:40.293Z,13.13
2022-10-28T08:44:16.989Z,12.35
2022-10-28T08:47:32.666Z,11.73
2022-10-28T08:50:11.065Z,13.25
2022-10-28T08:52:54.946Z,12.30
2022-10-28T08:55:30.552Z,14.27
2022-10-28T08:58:11.383Z,12.80
2022-10-28T09:00:40.126Z,12.43
2022-10-28T09:03:42.636Z,13.02
2022-10-28T09:06:11.070Z,12.63
2022-10-28T09:08:47.541Z,11.68
2022-10-28T09:11:37.404Z,12.75
2022-10-28T09:14:07.814Z,12.82
2022-10-28T09:16:48.159Z,12.30
2022-10-28T09:19:19.795Z,12.13
2022-10-28T09:21:49.062Z,13.00
2022-10-28T09:24:20.744Z,13.50
2022-10-28T09:29:19.952Z,12.90
2022-10-28T09:31:55.539Z,14.50
2022-10-28T09:34:35.282Z,14.32
2022-10-28T09:37:17.376Z,14.95
2022-10-28T09:39:54.252Z,15.38
2022-10-28T09:42:35.255Z,15.30
2022-10-28T09:45:05.603Z,14.40
2022-10-28T09:47:43.927Z,14.68
2022-10-28T09:50:20.447Z,15.20
2022-10-28T09:52:59.663Z,15.05
2022-10-28T09:55:27.225Z,13.50
2022-10-28T09:57:55.533Z,14.97
2022-10-28T10:00:23.218Z,14.45
2022-10-28T10:02:57.557Z,15.13
2022-10-28T10:05:25.615Z,13.55
2022-10-28T10:07:56.796Z,14.02
2022-10-28T10:10:44.751Z,14.00
2022-10-28T10:13:13.576Z,14.25
2022-10-28T10:15:52.881Z,14.32
2022-10-28T10:18:41.320Z,14.95
2022-10-28T10:21:08.795Z,15.00
2022-10-28T10:23:41.351Z,14.00
2022-10-28T10:26:12.525Z,13.75
2022-10-28T10:28:44.732Z,15.30
2022-10-28T10:31:26.796Z,14.82
2022-10-28T10:33:56.566Z,14.23
2022-10-28T10:36:28.767Z,14.73
2022-10-28T10:38:58.731Z,14.48
2022-10-28T10:41:42.254Z,15.70
2022-10-28T10:44:22.259Z,16.15
2022-10-28T10:47:06.512Z,14.98
2022-10-28T10:49:43.487Z,13.73
2022-10-28T10:52:23.768Z,14.63
2022-10-28T10:55:08.397Z,14.82
2022-10-28T10:57:36.048Z,16.05
2022-10-28T11:00:05.057Z,15.13
2022-10-28T11:02:36.706Z,14.90
2022-10-28T11:05:35.845Z,14.85
2022-10-28T11:08:28.312Z,15.45
2022-10-28T11:11:20.245Z,15.05
2022-10-28T11:13:49.831Z,14.63
2022-10-28T11:16:24.787Z,15.37
2022-10-28T11:18:53.269Z,16.30
2022-10-28T11:21:36.208Z,16.42
2022-10-28T11:24:36.239Z,14.23
2022-10-28T11:27:39.576Z,16.55
2022-10-28T11:30:13.291Z,15.40
2022-10-28T11:33:29.535Z,15.02
2022-10-28T11:36:28.555Z,15.18
2022-10-28T11:39:08.241Z,14.73
2022-10-28T11:42:01.368Z,15.48
2022-10-28T11:44:32.052Z,16.23
2022-10-28T11:47:13.806Z,15.55
2022-10-28T11:50:17.235Z,15.90
2022-10-28T11:52:57.611Z,17.48
2022-10-28T11:55:35.041Z,16.62
2022-10-28T11:58:21.409Z,16.97
2022-10-28T12:01:14.073Z,16.12
2022-10-28T12:04:01.510Z,16.98
2022-10-28T12:06:55.209Z,16.87
2022-10-28T12:09:25.857Z,17.67
2022-10-28T12:12:30.280Z,19.40
2022-10-28T12:15:31.319Z,19.80
2022-10-28T12:18:06.134Z,20.33
2022-10-28T12:20:53.086Z,16.70
2022-10-28T12:23:22.479Z,17.62
2022-10-28T12:25:52.754Z,16.40
2022-10-28T12:28:24.869Z,17.25
2022-10-28T12:30:53.596Z,17.05
2022-10-28T12:33:29.669Z,17.73
2022-10-28T12:36:10.082Z,16.85
2022-10-28T12:38:57.722Z,16.87
2022-10-28T12:41:28.339Z,17.23
2022-10-28T12:44:03.575Z,18.92
2022-10-28T12:46:52.354Z,17.60
2022-10-28T12:49:35.935Z,17.95
2022-10-28T12:52:14.638Z,18.13
2022-10-28T12:54:58.920Z,17.27
2022-10-28T12:57:27.392Z,16.50
2022-10-28T13:00:04.879Z,18.55
2022-10-28T13:02:39.144Z,18.15
2022-10-28T13:05:07.641Z,16.87
2022-10-28T13:08:00.818Z,19.35
2022-10-28T13:10:36.171Z,18.55
2022-10-28T13:13:13.377Z,18.55
2022-10-28T13:15:44.098Z,18.10
2022-10-28T13:18:30.123Z,18.57
2022-10-28T13:21:32.736Z,19.83
2022-10-28T13:24:17.692Z,18.20
2022-10-28T13:26:45.846Z,19.50
2022-10-28T13:29:33.918Z,18.58
2022-10-28T13:32:02.053Z,18.33
2022-10-28T13:34:40.923Z,19.45
2022-10-28T13:37:19.249Z,18.98
2022-10-28T13:39:47.479Z,39.95
2022-10-28T13:42:15.035Z,19.20
2022-10-28T13:45:01.610Z,17.50
2022-10-28T13:47:29.569Z,18.00
2022-10-28T13:50:06.185Z,17.00
2022-10-28T13:52:35.018Z,17.30
2022-10-28T13:55:14.378Z,16.35
2022-10-28T13:57:43.751Z,17.13
2022-10-28T14:00:17.765Z,18.08
2022-10-28T14:02:53.482Z,17.58
2022-10-28T14:05:45.889Z,16.67
2022-10-28T14:08:32.534Z,15.43
2022-10-28T14:11:04.428Z,15.87
2022-10-28T14:13:35.325Z,16.80
2022-10-28T14:16:25.830Z,18.75
2022-10-28T14:19:00.326Z,16.42
2022-10-28T14:22:00.643Z,16.70
2022-10-28T14:24:36.646Z,15.50
2022-10-28T14:27:03.998Z,16.25
2022-10-28T14:29:35.372Z,15.60
2022-10-28T14:32:31.819Z,15.57
2022-10-28T14:35:12.937Z,15.73
2022-10-28T14:38:18.176Z,17.33
2022-10-28T14:41:06.357Z,16.25
2022-10-28T14:44:02.116Z,18.52
2022-10-28T14:46:34.145Z,17.65
2022-10-28T14:49:03.303Z,20.50
2022-10-28T14:51:39.275Z,19.97
2022-10-28T14:54:16.491Z,17.87
2022-10-28T14:56:44.555Z,18.48
2022-10-28T14:59:25.381Z,17.98
2022-10-28T15:01:59.448Z,17.02
2022-10-28T15:04:27.179Z,16.67
2022-10-28T15:06:55.505Z,19.30
2022-10-28T15:09:29.287Z,19.30
2022-10-28T15:12:08.089Z,21.23
2022-10-28T15:14:40.545Z,20.67
2022-10-28T15:17:12.443Z,20.73
2022-10-28T15:19:40.983Z,22.23
2022-10-28T15:22:14.720Z,20.90
2022-10-28T15:24:46.204Z,27.67
2022-10-28T15:27:22.603Z,22.50
2022-10-28T15:29:50.823Z,19.27
2022-10-28T15:32:21.558Z,19.12
2022-10-28T15:34:49.189Z,19.83
2022-10-28T15:37:18.519Z,21.42
2022-10-28T15:39:46.611Z,19.40
2022-10-28T15:42:45.151Z,19.27
2022-10-28T15:45:18.425Z,19.62
2022-10-28T15:47:46.753Z,20.80
2022-10-28T15:50:14.521Z,19.58
2022-10-28T15:52:53.710Z,21.37
2022-10-28T15:55:26.679Z,21.27
2022-10-28T15:58:28.989Z,20.92
2022-10-28T16:00:58.172Z,20.80
2022-10-28T16:03:39.418Z,23.65
2022-10-28T16:06:19.462Z,20.65
2022-10-28T16:08:47.745Z,21.23
2022-10-28T16:11:18.058Z,21.92
2022-10-28T16:13:48.225Z,20.67
2022-10-28T16:16:24.237Z,22.35
2022-10-28T16:19:10.917Z,24.85
2022-10-28T16:21:38.988Z,23.23
2022-10-28T16:24:06.726Z,22.58
2022-10-28T16:26:34.233Z,23.12
2022-10-28T16:29:01.921Z,21.87
2022-10-28T16:31:30.775Z,22.00
2022-10-28T16:33:59.396Z,20.77
2022-10-28T16:36:28.430Z,21.40
2022-10-28T16:38:56.064Z,21.75
2022-10-28T16:41:24.255Z,21.10
2022-10-28T16:43:52.088Z,21.87
2022-10-28T16:46:19.827Z,23.93
2022-10-28T16:48:47.411Z,23.92
2022-10-28T16:51:17.555Z,28.52
2022-10-28T16:53:50.815Z,24.23
2022-10-28T16:56:18.760Z,24.80
2022-10-28T16:58:46.860Z,24.13
2022-10-28T17:01:19.238Z,21.83
2022-10-28T17:03:47.196Z,21.50
2022-10-28T17:06:14.797Z,23.30
2022-10-28T17:09:01.809Z,22.98
2022-10-28T17:13:58.936Z,23.30
2022-10-28T17:16:26.604Z,21.30
2022-10-28T17:18:54.664Z,22.58
2022-10-28T17:21:22.300Z,21.85
2022-10-28T17:23:49.762Z,22.37
2022-10-28T17:26:17.906Z,21.37
2022-10-28T17:28:45.384Z,22.45
2022-10-28T17:31:12.855Z,22.05
2022-10-28T17:33:40.644Z,22.23
2022-10-28T17:36:08.832Z,20.63
2022-10-28T17:38:36.358Z,22.05
2022-10-28T17:41:04.198Z,22.00
2022-10-28T17:43:31.679Z,25.20
2022-10-28T17:46:06.589Z,22.10
2022-10-28T17:48:34.633Z,22.40
2022-10-28T17:51:02.300Z,22.17
2022-10-28T17:53:29.752Z,21.87
2022-10-28T17:55:58.514Z,24.27
2022-10-28T17:58:26.976Z,25.02
2022-10-28T18:01:02.381Z,24.03
2022-10-28T18:03:34.087Z,21.52
2022-10-28T18:06:11.189Z,19.90
2022-10-28T18:08:40.960Z,19.42
2022-10-28T18:11:10.584Z,21.90
2022-10-28T18:13:39.598Z,20.57
2022-10-28T18:16:14.713Z,23.48
2022-10-28T18:18:42.916Z,23.73
2022-10-28T18:21:12.144Z,22.87
2022-10-28T18:23:41.157Z,21.55
2022-10-28T18:26:13.969Z,23.70
2022-10-28T18:28:43.352Z,22.83
2022-10-28T18:31:14.159Z,21.95
2022-10-28T18:33:43.575Z,21.40
2022-10-28T18:36:14.403Z,20.45
2022-10-28T18:38:42.514Z,22.23
2022-10-28T18:41:15.033Z,20.12
2022-10-28T18:43:43.041Z,22.23
2022-10-28T18:46:12.440Z,22.05
2022-10-28T18:48:40.649Z,22.15
2022-10-28T18:51:12.182Z,21.40
2022-10-28T18:53:41.946Z,21.15
2022-10-28T18:56:18.023Z,21.80
2022-10-28T18:58:48.383Z,22.52
2022-10-28T19:01:21.336Z,19.98
2022-10-28T19:03:54.050Z,21.03
2022-10-28T19:06:23.015Z,22.75
2022-10-28T19:08:52.615Z,24.63
2022-10-28T19:11:21.099Z,23.27
2022-10-28T19:13:49.589Z,23.52
2022-10-28T19:16:17.408Z,24.90
2022-10-28T19:18:45.932Z,24.90
2022-10-28T19:21:15.313Z,22.27
2022-10-28T19:23:43.740Z,19.62
2022-10-28T19:26:11.939Z,20.10
2022-10-28T19:28:41.396Z,19.30
2022-10-28T19:31:11.328Z,19.55
2022-10-28T19:33:39.326Z,19.17
2022-10-28T19:36:10.410Z,19.45
2022-10-28T19:38:37.976Z,19.52
2022-10-28T19:41:08.123Z,19.20
2022-10-28T19:43:36.386Z,19.17
2022-10-28T19:46:04.819Z,20.35
2022-10-28T19:48:32.924Z,18.75
2022-10-28T19:51:00.836Z,18.77
2022-10-28T19:53:28.329Z,19.70
2022-10-28T19:56:00.534Z,17.90
2022-10-28T19:58:29.794Z,18.12
2022-10-28T20:01:05.225Z,18.23
2022-10-28T20:03:34.751Z,15.45
2022-10-28T20:06:07.989Z,16.63
2022-10-28T20:08:43.449Z,17.80
2022-10-28T20:11:13.564Z,17.70
2022-10-28T20:13:41.587Z,17.90
2022-10-28T20:16:14.255Z,16.65
2022-10-28T20:18:42.184Z,24.13
2022-10-28T20:21:17.271Z,19.15
2022-10-28T20:23:47.420Z,17.55
2022-10-28T20:26:15.848Z,16.87
2022-10-28T20:28:43.355Z,18.40
2022-10-28T20:31:13.705Z,19.53
2022-10-28T20:33:42.488Z,17.10
2022-10-28T20:36:37.092Z,17.90
2022-10-28T20:39:19.271Z,17.67
2022-10-28T20:41:48.091Z,19.02
2022-10-28T20:44:16.121Z,19.43
2022-10-28T20:46:45.181Z,18.55
2022-10-28T20:49:13.310Z,18.98
2022-10-28T20:51:41.395Z,18.02
2022-10-28T20:54:08.897Z,18.15
2022-10-28T20:56:37.817Z,17.03
2022-10-28T20:59:05.671Z,17.75
2022-10-28T21:01:35.613Z,17.20
2022-10-28T21:04:05.576Z,16.77
2022-10-28T21:06:33.896Z,17.05
2022-10-28T21:09:01.416Z,16.93
2022-10-28T21:11:29.050Z,16.95
2022-10-28T21:13:59.399Z,16.05
2022-10-28T21:16:28.014Z,17.75
2022-10-28T21:18:55.572Z,16.90
2022-10-28T21:21:24.159Z,16.83
2022-10-28T21:23:51.958Z,15.30
2022-10-28T21:26:19.502Z,17.12
2022-10-28T21:28:52.195Z,16.20
2022-10-28T21:31:20.538Z,17.23
2022-10-28T21:36:21.723Z,16.15
2022-10-28T21:38:52.941Z,15.52
2022-10-28T21:41:21.290Z,15.63
2022-10-28T21:43:51.241Z,15.73
2022-10-28T21:46:19.996Z,16.07
2022-10-28T21:48:47.952Z,15.15
2022-10-28T21:51:16.510Z,14.93
2022-10-28T21:53:44.880Z,15.32
2022-10-28T21:56:17.758Z,16.17
2022-10-28T21:58:48.174Z,16.23
2022-10-28T22:01:20.714Z,14.95
2022-10-28T22:03:48.835Z,15.43
2022-10-28T22:06:16.545Z,16.48
2022-10-28T22:08:44.221Z,16.95
2022-10-28T22:11:13.756Z,15.17
2022-10-28T22:13:41.627Z,15.80
2022-10-28T22:16:14.263Z,16.70
2022-10-28T22:18:42.711Z,15.65
2022-10-28T22:21:19.129Z,15.38
2022-10-28T22:23:47.091Z,16.00
2022-10-28T22:26:17.969Z,17.08
2022-10-28T22:28:45.471Z,16.02
2022-10-28T22:31:16.102Z,16.92
2022-10-28T22:33:43.671Z,16.42
2022-10-28T22:36:13.386Z,16.90
2022-10-28T22:38:41.190Z,15.10
2022-10-28T22:41:08.610Z,16.75
2022-10-28T22:43:36.066Z,16.60
2022-10-28T22:46:04.202Z,17.30
2022-10-28T22:48:32.019Z,14.80
2022-10-28T22:51:00.141Z,14.45
2022-10-28T22:53:28.079Z,15.27
2022-10-28T22:55:56.247Z,16.00
2022-10-28T22:58:24.856Z,16.02
2022-10-28T23:00:52.661Z,15.97
2022-10-28T23:03:20.160Z,14.93
2022-10-28T23:05:47.605Z,15.68
2022-10-28T23:08:16.414Z,16.27
2022-10-28T23:10:43.885Z,18.05
2022-10-28T23:13:12.064Z,16.87
2022-10-28T23:15:39.850Z,16.12
2022-10-28T23:18:07.279Z,17.23
2022-10-28T23:20:36.310Z,16.62
2022-10-28T23:23:04.169Z,16.40
2022-10-28T23:25:31.621Z,15.17
2022-10-28T23:27:59.240Z,16.52
2022-10-28T23:30:27.054Z,15.95
2022-10-28T23:32:57.117Z,15.32
2022-10-28T23:35:25.147Z,15.45
2022-10-28T23:37:53.096Z,15.70
2022-10-28T23:40:20.799Z,15.05
2022-10-28T23:42:48.227Z,15.82
2022-10-28T23:45:15.969Z,15.57
2022-10-28T23:47:43.402Z,14.05
2022-10-28T23:50:11.106Z,15.40
2022-10-28T23:52:38.834Z,15.80
2022-10-28T23:55:06.591Z,14.93
2022-10-28T23:57:34.001Z,14.35
